Worksop, United Kingdom
Current Conditions -  °F | °C
As of 4:20 AM on Wednesday 28 Jan 2015 (Local Time) from EGCN Reporting Station
Broken Clouds Broken Clouds  
Wind Chill: 38°   Ceiling: 2200
Heat Index: 46°   Visibility: 6mi
Dew Point: 43°   Wind: 26mph
Humidity: 87%   Direction: 220°SW
Pressure: 29.68"   Gusts: NA
Location:  53.31°N, 1.12°W
Report Text: EGCN 280420Z AUTO 22023KT 9999 FEW016/// BKN022/// 08/06 Q1005
Loading
Personal Weather Stations






























Interactive Weather Map New forecast layout! Learn more

10-Day Weather Forecast

Advertisements
Track Severe Weather on mobile